ADDS METAR Data INFO
IDs: Format: Raw Decoded Include TAF

Data at: 2226 UTC 22 Aug 2017

KAMA 222153Z 04014KT 10SM OVC020 24/19 A3019 RMK AO2 SLP176 T02390194
KAMA 222112Z 02018KT 10SM BKN019 24/19 A3019 RMK AO2 T02440194
KAMA 222053Z 36015KT 10SM SCT019 25/19 A3019 RMK AO2 SLP176 T02500194 58009
KAMA 222014Z 36013KT 10SM SCT021 26/19 A3020 RMK AO2 T02610194
KAMA 221953Z 36014KT 10SM BKN021 26/20 A3021 RMK AO2 SLP184 T02560200
KAMA 221951Z 01013KT 10SM BKN021 26/19 A3021 RMK AO2
KAMA 221853Z 01012KT 10SM SCT023 27/20 A3022 RMK AO2 SLP183 T02720200
KAMA 221753Z 36013KT 10SM FEW023 27/20 A3022 RMK AO2 SLP183 T02670200 10278 20178 51008
KAMA 221653Z 36011KT 10SM CLR 27/19 A3021 RMK AO2 SLP179 T02720194
KAMA 221553Z 33010KT 10SM CLR 26/19 A3020 RMK AO2 SLP176 T02610189
KAMA 221453Z 30006KT 10SM CLR 26/19 A3019 RMK AO2 SLP172 T02560189 52013
KAMA 221353Z 24005KT 10SM CLR 23/19 A3018 RMK AO2 SLP169 T02280189
KAMA 221253Z 23005KT 10SM CLR 19/18 A3016 RMK AO2 SLP165 T01890183
KAMA 221153Z 20008KT 10SM CLR 19/17 A3015 RMK AO2 SLP157 70012 T01890172 10200 20183 55000
KAMA 221053Z 19007KT 10SM CLR 19/17 A3014 RMK AO2 SLP155 T01890172
KAMA 220953Z AUTO 22006KT 10SM CLR 19/18 A3014 RMK AO2 SLP154 T01890178
KAMA 220853Z AUTO 21007KT 10SM CLR 18/17 A3015 RMK AO2 SLP160 T01830172 55003
KAMA 220753Z AUTO 20005KT 10SM CLR 19/17 A3015 RMK AO2 SLP160 T01890172
KAMA 220653Z AUTO 19007KT 10SM CLR 19/18 A3015 RMK AO2 SLP161 T01890178
KAMA 220553Z AUTO 18006KT 10SM CLR 20/18 A3016 RMK AO2 SLP166 T02000178 10283 20200 402890189 51007
KAMA 220453Z 20009KT 10SM CLR 20/18 A3016 RMK AO2 SLP164 T02000178
KAMA 220353Z 19009KT 10SM CLR 21/18 A3015 RMK AO2 SLP163 T02110183
KAMA 220253Z 19010KT 10SM CLR 22/18 A3014 RMK AO2 SLP158 T02220183 53009
KAMA 220153Z 18009KT 10SM CLR 23/18 A3011 RMK AO2 SLP152 T02330183
KAMA 220053Z 19010KT 10SM CLR 26/17 A3010 RMK AO2 SLP144 T02610167
KAMA 212353Z 21012KT 10SM CLR 28/17 A3011 RMK AO2 SLP143 T02830167 10289 20244 56009
KAMA 212253Z 21014KT 10SM FEW043 28/18 A3011 RMK AO2 SLP143 T02830178
KAMA 212153Z 20009KT 10SM FEW040 28/19 A3012 RMK AO2 SLP148 T02830194
KAMA 212053Z 19013G23KT 10SM FEW036 28/19 A3014 RMK AO2 SLP153 T02780189 58005
KAMA 211953Z 20016G21KT 10SM FEW095 27/18 A3015 RMK AO2 SLP159 T02670183
KAMA 211853Z 18012KT 10SM BKN110 26/19 A3015 RMK AO2 SLP161 T02610189
KAMA 211753Z 19011KT 10SM BKN110 24/18 A3015 RMK AO2 SLP163 60012 T02440183 10250 20189 58006
KAMA 211653Z 20010KT 10SM FEW120 24/19 A3017 RMK AO2 SLP170 T02440194
KAMA 211553Z 22009KT 10SM BKN110 23/19 A3017 RMK AO2 SLP169 T02280194
KAMA 211453Z 23006KT 10SM BKN110 21/18 A3017 RMK AO2 RAB1356E12 SLP169 P0001 60012 T02060183 50007
KAMA 211353Z 21007KT 10SM SCT050 SCT070 OVC100 19/18 A3018 RMK AO2 RAE50 SLP175 P0006 T01890183
KAMA 211339Z 25006KT 2 1/2SM -RA BR BKN050 OVC075 19/18 A3018 RMK AO2 TWR VIS 3 P0006 T01890183
KAMA 211253Z 20011KT 5SM -RA BR BKN060 OVC075 19/18 A3016 RMK AO2 SLP163 P0005 T01890183
KAMA 211238Z 21011KT 5SM -RA BR BKN075 BKN095 OVC110 19/18 A3016 RMK AO2 P0001 T01890178
KAMA 211153Z 19008KT 10SM -RA FEW070 SCT090 OVC110 19/18 A3015 RMK AO2 RAB21E30B49 SLP156 P0000 60001 70017 T01940183 10206 20189 55004
KAMA 211053Z AUTO 25005KT 10SM BKN120 19/17 A3012 RMK AO2 SLP145 T01940172